sim
Sign-in with your pilot id or email,
or register
Callsign
Passwort

Schedule Details

Flight Number: OEO8826
Departure: Saarbr├╝cken Airport (EDDR) at 10:45
Arrival: Munich Airport (EDDM) at 11:55

Weather Information
Getting current METAR information for EDDR 181250Z 10012KT 070V130 CAVOK 23/11 Q1021 NOSIG
Getting current METAR information for EDDM 181250Z 07010KT 020V120 CAVOK 19/09 Q1024 NOSIG

Schedule Frequency

Route Map